createdAt,value
2024-05-09T00:01:55.519Z,11.06
2024-05-09T00:04:25.204Z,11.08
2024-05-09T00:06:54.559Z,11.04
2024-05-09T00:09:24.367Z,11.05
2024-05-09T00:11:53.861Z,11.01
2024-05-09T00:14:26.648Z,11.02
2024-05-09T00:16:56.253Z,10.98
2024-05-09T00:19:25.930Z,10.96
2024-05-09T00:21:55.374Z,10.92
2024-05-09T00:24:24.792Z,10.91
2024-05-09T00:26:54.376Z,10.88
2024-05-09T00:29:26.998Z,10.92
2024-05-09T00:31:56.751Z,10.88
2024-05-09T00:34:28.791Z,10.81
2024-05-09T00:36:58.249Z,10.77
2024-05-09T00:39:27.570Z,10.76
2024-05-09T00:41:57.214Z,10.73
2024-05-09T00:44:29.197Z,10.66
2024-05-09T00:46:59.011Z,10.62
2024-05-09T00:49:29.506Z,10.59
2024-05-09T00:52:00.118Z,10.58
2024-05-09T00:54:30.019Z,10.52
2024-05-09T00:56:59.589Z,10.54
2024-05-09T00:59:33.578Z,10.53
2024-05-09T01:02:03.382Z,10.47
2024-05-09T01:05:05.109Z,10.45
2024-05-09T01:07:34.664Z,10.37
2024-05-09T01:10:05.547Z,10.38
2024-05-09T01:12:36.907Z,10.33
2024-05-09T01:15:09.684Z,10.32
2024-05-09T01:17:39.696Z,10.27
2024-05-09T01:20:13.140Z,10.25
2024-05-09T01:22:50.213Z,10.24
2024-05-09T01:25:22.487Z,10.23
2024-05-09T01:27:51.955Z,10.21
2024-05-09T01:30:27.982Z,10.20
2024-05-09T01:33:03.698Z,10.18
2024-05-09T01:35:33.447Z,10.17
2024-05-09T01:38:02.870Z,10.13
2024-05-09T01:40:38.684Z,10.14
2024-05-09T01:43:11.149Z,10.07
2024-05-09T01:45:41.782Z,10.04
2024-05-09T01:48:12.124Z,10.08
2024-05-09T01:50:43.210Z,10.03
2024-05-09T01:53:14.746Z,10.02
2024-05-09T01:55:47.271Z,9.99
2024-05-09T01:58:17.288Z,9.96
2024-05-09T02:00:48.112Z,9.95
2024-05-09T02:03:18.140Z,9.90
2024-05-09T02:05:49.609Z,9.91
2024-05-09T02:08:22.232Z,9.93
2024-05-09T02:10:54.449Z,9.88
2024-05-09T02:13:23.779Z,9.85
2024-05-09T02:15:53.836Z,9.82
2024-05-09T02:18:23.398Z,9.76
2024-05-09T02:20:53.175Z,9.76
2024-05-09T02:23:22.671Z,9.70
2024-05-09T02:25:54.880Z,9.70
2024-05-09T02:28:24.596Z,9.60
2024-05-09T02:30:54.054Z,9.68
2024-05-09T02:33:21.291Z,9.63
2024-05-09T02:35:51.130Z,9.66
2024-05-09T02:38:17.972Z,9.60
2024-05-09T02:40:47.439Z,9.58
2024-05-09T02:43:16.962Z,9.55
2024-05-09T02:45:46.445Z,9.48
2024-05-09T02:48:14.100Z,9.43
2024-05-09T03:12:08.853Z,9.27
2024-05-09T03:20:33.051Z,9.16
2024-05-09T04:02:57.539Z,8.75
2024-05-09T04:08:08.016Z,8.75
2024-05-09T04:10:50.391Z,8.72
2024-05-09T04:27:59.178Z,8.72
2024-05-09T04:36:19.912Z,8.81
2024-05-09T04:53:17.924Z,8.88
2024-05-09T05:23:13.720Z,9.14
2024-05-09T05:55:03.561Z,9.92
2024-05-09T07:09:14.727Z,13.42
2024-05-09T07:28:10.377Z,14.30
2024-05-09T07:34:43.818Z,14.43
2024-05-09T07:36:55.570Z,14.71
2024-05-09T07:44:06.916Z,15.24
2024-05-09T07:54:11.296Z,15.71
2024-05-09T07:58:01.444Z,15.94
2024-05-09T08:53:51.236Z,19.00
2024-05-09T08:56:25.073Z,19.13
2024-05-09T09:02:03.036Z,19.52
2024-05-09T09:04:45.457Z,19.76
2024-05-09T09:07:14.497Z,19.93
2024-05-09T09:09:55.257Z,20.18
2024-05-09T09:12:30.544Z,20.27
2024-05-09T09:15:44.270Z,20.51
2024-05-09T09:18:27.111Z,20.82
2024-05-09T09:21:03.622Z,21.05
2024-05-09T09:23:45.126Z,21.33
2024-05-09T09:26:29.724Z,21.58
2024-05-09T09:29:04.231Z,21.85
2024-05-09T09:31:43.071Z,22.16
2024-05-09T09:34:12.624Z,22.40
2024-05-09T09:36:48.479Z,22.68
2024-05-09T09:39:32.085Z,22.99
2024-05-09T09:42:50.073Z,23.09
2024-05-09T09:45:32.150Z,23.04
2024-05-09T09:48:33.802Z,23.12
2024-05-09T09:51:14.051Z,23.22
2024-05-09T09:54:22.648Z,23.47
2024-05-09T10:00:50.278Z,23.99
2024-05-09T10:03:51.762Z,24.06
2024-05-09T10:06:54.117Z,23.95
2024-05-09T10:09:33.396Z,24.08
2024-05-09T10:12:23.816Z,24.17
2024-05-09T10:15:13.054Z,24.24
2024-05-09T10:18:10.458Z,24.24
2024-05-09T10:21:09.196Z,24.23
2024-05-09T10:23:55.184Z,24.23
2024-05-09T10:26:44.822Z,24.28
2024-05-09T10:29:27.270Z,24.26
2024-05-09T10:32:00.899Z,24.28
2024-05-09T10:34:50.049Z,24.32
2024-05-09T10:37:26.016Z,24.26
2024-05-09T10:39:58.231Z,24.23
2024-05-09T10:42:31.269Z,24.09
2024-05-09T10:45:09.805Z,23.87
2024-05-09T10:48:16.333Z,23.71
2024-05-09T10:50:50.810Z,23.71
2024-05-09T10:56:59.468Z,23.48
2024-05-09T10:59:37.840Z,23.47
2024-05-09T11:02:22.817Z,23.48
2024-05-09T11:05:04.558Z,23.47
2024-05-09T11:07:45.551Z,23.44
2024-05-09T11:10:24.350Z,23.47
2024-05-09T11:13:34.740Z,23.36
2024-05-09T11:16:22.065Z,23.37
2024-05-09T11:19:10.609Z,23.43
2024-05-09T11:21:39.873Z,23.40
2024-05-09T11:24:12.945Z,23.46
2024-05-09T11:26:41.431Z,23.52
2024-05-09T11:29:22.632Z,23.59
2024-05-09T11:32:06.606Z,23.62
2024-05-09T11:34:59.286Z,23.60
2024-05-09T11:37:32.713Z,23.67
2024-05-09T11:40:39.480Z,23.82
2024-05-09T11:47:01.680Z,23.57
2024-05-09T11:51:57.991Z,23.62
2024-05-09T12:08:04.141Z,24.15
2024-05-09T12:10:35.809Z,24.18
2024-05-09T12:13:17.938Z,24.13
2024-05-09T12:15:53.582Z,24.10
2024-05-09T12:25:32.007Z,24.11
2024-05-09T12:28:14.238Z,23.98
2024-05-09T12:31:05.427Z,23.85
2024-05-09T12:33:59.655Z,23.83
2024-05-09T12:36:58.276Z,23.83
2024-05-09T12:40:35.622Z,23.89
2024-05-09T12:43:25.444Z,23.64
2024-05-09T12:46:04.330Z,23.64
2024-05-09T12:48:37.303Z,23.57
2024-05-09T12:51:09.856Z,23.53
2024-05-09T12:53:51.117Z,23.42
2024-05-09T12:56:28.923Z,23.35
2024-05-09T12:59:33.689Z,23.27
2024-05-09T13:02:24.393Z,23.07
2024-05-09T13:05:26.722Z,23.02
2024-05-09T13:07:59.709Z,23.10
2024-05-09T13:11:08.785Z,23.04
2024-05-09T13:14:00.398Z,22.97
2024-05-09T13:16:45.442Z,22.85
2024-05-09T13:19:27.630Z,22.72
2024-05-09T13:22:08.907Z,22.59
2024-05-09T13:24:49.667Z,22.42
2024-05-09T13:27:43.679Z,22.27
2024-05-09T13:30:42.759Z,22.06
2024-05-09T13:33:45.179Z,21.99
2024-05-09T13:36:56.989Z,21.94
2024-05-09T13:40:27.107Z,21.90
2024-05-09T13:43:06.596Z,21.74
2024-05-09T13:46:04.928Z,21.51
2024-05-09T13:48:52.462Z,21.41
2024-05-09T13:51:38.986Z,21.32
2024-05-09T13:54:15.286Z,21.18
2024-05-09T14:00:27.303Z,20.98
2024-05-09T14:03:37.079Z,20.89
2024-05-09T14:06:34.052Z,20.79
2024-05-09T14:09:19.402Z,20.72
2024-05-09T14:12:21.020Z,20.67
2024-05-09T14:15:09.924Z,20.65
2024-05-09T14:18:12.497Z,20.51
2024-05-09T14:21:05.968Z,20.34
2024-05-09T14:24:31.520Z,20.33
2024-05-09T14:27:18.491Z,20.28
2024-05-09T14:30:09.554Z,20.27
2024-05-09T14:32:56.170Z,20.18
2024-05-09T14:35:27.214Z,20.16
2024-05-09T14:38:02.595Z,20.16
2024-05-09T14:40:43.895Z,20.12
2024-05-09T14:43:25.149Z,20.08
2024-05-09T14:45:58.020Z,20.06
2024-05-09T14:48:31.839Z,19.95
2024-05-09T14:51:07.547Z,19.88
2024-05-09T14:53:54.562Z,19.78
2024-05-09T14:56:47.275Z,19.66
2024-05-09T14:59:50.713Z,19.56
2024-05-09T15:03:06.376Z,19.56
2024-05-09T15:06:32.862Z,19.33
2024-05-09T15:09:41.583Z,19.36
2024-05-09T15:12:46.404Z,19.45
2024-05-09T15:15:34.050Z,19.31
2024-05-09T15:18:14.270Z,19.41
2024-05-09T15:20:57.493Z,19.42
2024-05-09T15:30:37.784Z,19.06
2024-05-09T15:34:05.314Z,19.01
2024-05-09T15:37:07.614Z,19.06
2024-05-09T15:39:59.114Z,19.08
2024-05-09T15:42:53.238Z,18.99
2024-05-09T15:45:57.863Z,19.03
2024-05-09T15:58:10.229Z,18.95
2024-05-09T16:01:06.703Z,18.90
2024-05-09T16:03:56.940Z,18.87
2024-05-09T16:07:01.217Z,18.80
2024-05-09T16:09:41.003Z,18.92
2024-05-09T16:12:33.711Z,18.77
2024-05-09T16:18:11.963Z,18.58
2024-05-09T16:20:55.810Z,18.62
2024-05-09T16:23:32.071Z,18.52
2024-05-09T16:26:26.210Z,18.47
2024-05-09T16:29:28.324Z,18.64
2024-05-09T16:32:07.267Z,18.69
2024-05-09T16:34:54.689Z,18.74
2024-05-09T16:37:30.171Z,18.75
2024-05-09T16:56:50.113Z,18.41
2024-05-09T17:10:29.637Z,18.38
2024-05-09T17:13:21.457Z,18.41
2024-05-09T17:17:01.921Z,18.41
2024-05-09T17:20:32.197Z,18.42
2024-05-09T17:27:02.194Z,18.40
2024-05-09T17:30:29.048Z,18.39
2024-05-09T17:36:44.794Z,18.34
2024-05-09T17:40:00.818Z,18.36
2024-05-09T17:42:41.878Z,18.33
2024-05-09T17:52:48.452Z,18.35
2024-05-09T17:56:05.110Z,18.29
2024-05-09T18:02:21.923Z,18.23
2024-05-09T18:08:50.543Z,18.13
2024-05-09T18:11:57.226Z,18.10
2024-05-09T18:14:37.492Z,18.06
2024-05-09T18:17:16.385Z,18.05
2024-05-09T18:19:58.568Z,18.01
2024-05-09T18:22:31.175Z,17.97
2024-05-09T18:25:12.907Z,17.92
2024-05-09T18:27:44.637Z,17.88
2024-05-09T18:30:28.257Z,17.84
2024-05-09T18:33:18.306Z,17.75
2024-05-09T18:35:53.367Z,17.64
2024-05-09T18:38:29.763Z,17.55
2024-05-09T18:41:03.235Z,17.49
2024-05-09T18:43:44.932Z,17.46
2024-05-09T18:46:27.925Z,17.55
2024-05-09T18:49:01.293Z,17.50
2024-05-09T18:51:40.202Z,17.31
2024-05-09T18:54:18.913Z,17.25
2024-05-09T18:57:04.230Z,17.21
2024-05-09T18:59:55.251Z,17.23
2024-05-09T19:02:39.126Z,17.35
2024-05-09T19:08:48.579Z,17.28
2024-05-09T19:11:29.854Z,17.22
2024-05-09T19:14:19.753Z,17.15
2024-05-09T19:20:25.497Z,16.92
2024-05-09T19:26:20.979Z,16.84
2024-05-09T19:29:24.507Z,16.84
2024-05-09T19:31:59.842Z,16.77
2024-05-09T19:34:44.669Z,16.68
2024-05-09T19:37:21.263Z,16.65
2024-05-09T19:40:06.656Z,16.74
2024-05-09T19:42:38.999Z,16.74
2024-05-09T19:45:16.196Z,16.70
2024-05-09T19:47:56.715Z,16.68
2024-05-09T19:50:43.638Z,16.61
2024-05-09T19:53:22.882Z,16.59
2024-05-09T19:56:17.986Z,16.56
2024-05-09T19:59:15.115Z,16.54
2024-05-09T20:01:58.938Z,16.53
2024-05-09T20:04:52.285Z,16.45
2024-05-09T20:07:37.141Z,16.42
2024-05-09T20:10:26.216Z,16.29
2024-05-09T20:28:03.869Z,16.05
2024-05-09T20:33:38.955Z,15.99
2024-05-09T20:36:11.936Z,15.94
2024-05-09T21:01:39.892Z,15.57
2024-05-09T21:04:31.263Z,15.55
2024-05-09T21:07:19.223Z,15.52
2024-05-09T21:10:22.424Z,15.48
2024-05-09T21:13:10.954Z,15.45
2024-05-09T21:15:46.337Z,15.39
2024-05-09T21:18:30.745Z,15.37
2024-05-09T21:21:09.799Z,15.35
2024-05-09T21:23:49.728Z,15.32
2024-05-09T21:26:42.590Z,15.28
2024-05-09T21:29:30.722Z,15.23
2024-05-09T21:32:30.943Z,15.18
2024-05-09T21:35:18.968Z,15.31
2024-05-09T21:38:15.250Z,15.32
2024-05-09T21:41:22.229Z,15.12
2024-05-09T21:51:25.111Z,14.93
2024-05-09T21:54:04.667Z,14.90
2024-05-09T21:56:43.166Z,14.82
2024-05-09T21:59:21.040Z,14.85
2024-05-09T22:01:56.782Z,14.81
2024-05-09T22:04:38.310Z,14.78
2024-05-09T22:07:24.817Z,14.73
2024-05-09T22:10:38.150Z,14.72
2024-05-09T22:16:27.361Z,14.63
2024-05-09T22:19:05.926Z,14.62
2024-05-09T22:21:44.521Z,14.59
2024-05-09T22:27:20.498Z,14.52
2024-05-09T22:30:09.008Z,14.49
2024-05-09T22:39:16.293Z,14.39
2024-05-09T22:45:36.489Z,14.37
2024-05-09T22:46:16.498Z,14.29
2024-05-09T22:49:39.492Z,14.19
2024-05-09T22:52:28.513Z,14.12
2024-05-09T22:58:40.915Z,14.19
2024-05-09T23:01:50.199Z,14.21
2024-05-09T23:04:56.011Z,14.05
2024-05-09T23:07:32.040Z,14.00
2024-05-09T23:10:35.963Z,13.97
2024-05-09T23:13:54.555Z,13.91
2024-05-09T23:16:47.459Z,13.88
2024-05-09T23:22:52.595Z,13.83
2024-05-09T23:25:47.465Z,13.82
2024-05-09T23:28:42.876Z,13.78
2024-05-09T23:31:28.887Z,13.77
2024-05-09T23:34:15.952Z,13.86
2024-05-09T23:36:51.305Z,13.72
2024-05-09T23:39:30.030Z,13.68
2024-05-09T23:42:23.915Z,13.65
2024-05-09T23:45:03.811Z,13.65
2024-05-09T23:47:38.422Z,13.62
2024-05-09T23:50:33.808Z,13.61
2024-05-09T23:53:11.123Z,13.53
